Time;durP1;ratioP1;P1;durP2;ratioP2;P2;SDS_P1;SDS_P2;PMS_P1;PMS_P2;Temp;Humidity;BMP_temperature;BMP_pressure;BME280_temperature;BME280_humidity;BME280_pressure;Samples;Min_cycle;Max_cycle;Signal;HPM_P1;HPM_P2
2023/09/30 00:01:14;;;;;;;4.97;3.30;;;18.40;96.30;;;;;;5036906;28;20029;-89
2023/09/30 00:03:40;;;;;;;2.78;2.30;;;18.40;96.20;;;;;;5034455;28;20103;-91
2023/09/30 00:06:06;;;;;;;3.22;3.03;;;18.40;95.70;;;;;;5037372;28;20048;-92
2023/09/30 00:08:32;;;;;;;3.97;2.97;;;18.40;95.50;;;;;;5035040;28;20018;-90
2023/09/30 00:10:58;;;;;;;3.55;3.22;;;18.40;95.80;;;;;;5014884;28;20093;-92
2023/09/30 00:13:23;;;;;;;4.32;2.85;;;18.30;95.90;;;;;;5014265;28;20029;-91
2023/09/30 00:15:49;;;;;;;3.15;2.95;;;18.30;95.50;;;;;;5015579;28;20546;-90
2023/09/30 00:18:15;;;;;;;3.60;3.30;;;18.30;95.60;;;;;;5019447;28;20773;-92
2023/09/30 00:20:41;;;;;;;3.53;3.25;;;18.30;95.90;;;;;;5027366;28;20013;-90
2023/09/30 00:23:07;;;;;;;4.43;3.45;;;18.40;95.90;;;;;;5040157;28;20049;-92
2023/09/30 00:25:33;;;;;;;3.35;3.05;;;18.40;95.90;;;;;;5041578;28;20022;-89
2023/09/30 00:27:59;;;;;;;4.70;4.25;;;18.30;95.80;;;;;;5039700;28;20097;-90
2023/09/30 00:30:25;;;;;;;3.55;2.95;;;18.40;95.60;;;;;;5038835;28;20034;-91
2023/09/30 00:32:50;;;;;;;4.03;3.72;;;18.50;95.30;;;;;;5035544;28;20037;-89
2023/09/30 00:35:16;;;;;;;3.45;3.15;;;18.50;95.70;;;;;;5034198;28;20033;-90
2023/09/30 00:37:42;;;;;;;3.08;2.88;;;18.50;94.60;;;;;;5031869;28;20097;-90
2023/09/30 00:40:12;;;;;;;3.78;3.05;;;18.50;94.40;;;;;;5005378;28;20562;-90
2023/09/30 00:42:38;;;;;;;3.50;3.20;;;18.60;94.10;;;;;;5020410;28;20037;-91
2023/09/30 00:45:05;;;;;;;3.88;2.75;;;18.60;93.50;;;;;;5020342;28;20026;-91
2023/09/30 00:47:31;;;;;;;3.47;2.72;;;18.50;94.30;;;;;;5020241;28;20028;-91
2023/09/30 00:49:57;;;;;;;3.55;2.35;;;18.50;96.40;;;;;;5003162;28;20403;-91
2023/09/30 00:52:23;;;;;;;3.58;3.03;;;18.40;97.80;;;;;;5018985;28;20045;-91
2023/09/30 00:54:50;;;;;;;3.38;3.08;;;18.40;97.80;;;;;;5039347;28;20034;-89
2023/09/30 00:57:16;;;;;;;3.30;3.03;;;18.30;97.60;;;;;;5039328;28;20052;-90
2023/09/30 00:59:43;;;;;;;3.78;3.00;;;18.40;97.60;;;;;;5040380;28;20100;-90
2023/09/30 01:02:08;;;;;;;2.55;2.35;;;18.30;98.50;;;;;;5039619;28;20083;-91
2023/09/30 01:04:36;;;;;;;4.55;2.83;;;18.20;98.60;;;;;;5041283;28;20030;-92
2023/09/30 01:07:02;;;;;;;2.72;2.45;;;18.20;98.80;;;;;;5039842;28;20567;-91
2023/09/30 01:09:28;;;;;;;4.10;3.78;;;18.10;99.50;;;;;;5018759;28;20077;-90
2023/09/30 01:11:53;;;;;;;3.28;2.97;;;18.00;99.70;;;;;;5036592;28;20488;-90
2023/09/30 01:14:27;;;;;;;4.22;3.25;;;17.90;99.90;;;;;;5038106;28;20029;-91
2023/09/30 01:16:53;;;;;;;4.05;3.55;;;17.80;99.90;;;;;;5027166;28;20033;-91
2023/09/30 01:19:19;;;;;;;4.78;4.38;;;17.80;99.90;;;;;;5038435;28;20026;-90
2023/09/30 01:21:48;;;;;;;4.07;3.45;;;17.90;99.90;;;;;;5039167;28;20100;-91
2023/09/30 01:24:15;;;;;;;6.50;3.78;;;17.90;99.90;;;;;;5027303;28;20022;-91
2023/09/30 01:26:42;;;;;;;3.65;3.05;;;17.90;99.90;;;;;;5019668;28;20079;-91
2023/09/30 01:29:11;;;;;;;3.42;3.13;;;17.90;99.90;;;;;;5011739;28;20022;-90
2023/09/30 01:31:38;;;;;;;3.00;2.70;;;17.80;99.90;;;;;;5019838;28;20042;-91
2023/09/30 01:34:04;;;;;;;4.95;3.03;;;17.70;99.90;;;;;;5020602;28;20025;-90
2023/09/30 01:36:29;;;;;;;4.90;3.38;;;17.80;99.90;;;;;;5022451;28;20546;-91
2023/09/30 01:38:55;;;;;;;5.25;2.40;;;17.70;99.90;;;;;;5026814;28;20065;-92
2023/09/30 01:41:21;;;;;;;5.03;3.38;;;17.80;99.90;;;;;;5019005;28;20029;-91
2023/09/30 01:43:47;;;;;;;3.33;1.50;;;17.70;99.90;;;;;;5038582;28;20427;-90
2023/09/30 01:46:12;;;;;;;3.42;2.28;;;17.70;99.90;;;;;;5036567;28;20407;-90
2023/09/30 01:48:38;;;;;;;3.50;3.20;;;17.70;99.90;;;;;;5019428;28;20534;-90
2023/09/30 01:51:04;;;;;;;3.58;3.28;;;17.70;99.90;;;;;;5019795;28;20025;-89
2023/09/30 01:53:30;;;;;;;3.30;2.83;;;17.60;99.90;;;;;;5000893;28;20053;-90
2023/09/30 01:55:55;;;;;;;4.07;3.17;;;17.60;99.90;;;;;;5019260;28;20022;-90
2023/09/30 01:58:21;;;;;;;4.88;3.45;;;17.60;99.90;;;;;;5024648;28;20025;-90
2023/09/30 02:00:50;;;;;;;3.45;3.03;;;17.60;99.90;;;;;;5035706;28;20044;-90
2023/09/30 02:03:17;;;;;;;5.95;3.92;;;17.60;99.90;;;;;;5037779;28;20018;-90
2023/09/30 02:05:43;;;;;;;5.22;4.82;;;17.60;99.90;;;;;;5033402;28;20017;-91
2023/09/30 02:08:09;;;;;;;3.92;3.20;;;17.60;99.90;;;;;;5038792;28;20539;-91
2023/09/30 02:10:35;;;;;;;4.45;3.58;;;17.70;99.90;;;;;;5021543;28;20034;-90
2023/09/30 02:13:01;;;;;;;4.75;3.75;;;17.70;99.90;;;;;;5017840;28;20049;-91
2023/09/30 02:15:27;;;;;;;4.10;3.80;;;17.80;99.90;;;;;;5022822;28;20029;-90
2023/09/30 02:18:00;;;;;;;4.28;3.88;;;17.80;99.90;;;;;;5017442;28;20021;-90
2023/09/30 02:20:30;;;;;;;3.00;2.70;;;17.80;99.90;;;;;;5019993;28;20381;-90
2023/09/30 02:23:02;;;;;;;3.38;2.95;;;17.90;99.90;;;;;;5020069;28;20025;-90
2023/09/30 02:25:31;;;;;;;3.15;2.95;;;17.80;99.90;;;;;;5004660;28;20033;-91
2023/09/30 02:27:57;;;;;;;3.53;3.17;;;17.70;99.90;;;;;;5009326;28;20108;-92
2023/09/30 02:30:23;;;;;;;3.33;3.05;;;17.60;99.90;;;;;;4990313;28;20058;-90
2023/09/30 02:32:49;;;;;;;3.95;2.92;;;17.60;99.90;;;;;;5017354;28;20053;-92
2023/09/30 02:35:15;;;;;;;3.22;2.92;;;17.60;99.90;;;;;;5009607;28;20061;-90
2023/09/30 02:37:41;;;;;;;3.72;3.35;;;17.60;99.90;;;;;;5019820;28;20068;-89
2023/09/30 02:40:10;;;;;;;3.45;3.15;;;17.50;99.90;;;;;;5018183;28;20049;-90
2023/09/30 02:42:40;;;;;;;2.70;2.50;;;17.40;99.90;;;;;;5019191;28;20026;-91
2023/09/30 02:45:10;;;;;;;3.20;2.90;;;17.30;99.90;;;;;;5018057;28;20033;-92
2023/09/30 02:47:37;;;;;;;3.88;3.22;;;17.30;99.90;;;;;;5024958;28;20056;-92
2023/09/30 02:50:04;;;;;;;3.30;2.67;;;17.30;99.90;;;;;;5029504;28;20043;-89
2023/09/30 02:52:31;;;;;;;5.25;3.25;;;17.20;99.90;;;;;;5029615;28;20022;-90
2023/09/30 02:54:58;;;;;;;3.72;3.03;;;17.20;99.90;;;;;;5039001;28;20072;-89
2023/09/30 02:57:24;;;;;;;3.65;3.22;;;17.20;99.90;;;;;;5037891;28;20026;-89
2023/09/30 02:59:51;;;;;;;2.88;2.63;;;17.10;99.90;;;;;;5037006;28;20022;-91
2023/09/30 03:02:18;;;;;;;4.65;4.25;;;17.10;99.90;;;;;;5036303;28;20033;-90
2023/09/30 03:04:44;;;;;;;3.30;2.90;;;17.10;99.90;;;;;;5018970;28;20025;-90
2023/09/30 03:07:10;;;;;;;2.80;2.60;;;17.10;99.90;;;;;;5036581;28;20133;-89
2023/09/30 03:09:36;;;;;;;3.97;3.67;;;17.10;99.90;;;;;;5028249;28;20113;-90
2023/09/30 03:12:04;;;;;;;4.13;3.53;;;17.10;99.90;;;;;;5015605;28;20029;-91
2023/09/30 03:14:30;;;;;;;3.50;3.20;;;17.10;99.90;;;;;;5017134;28;20081;-90
2023/09/30 03:16:57;;;;;;;3.78;3.47;;;17.10;99.90;;;;;;5000303;28;20022;-91
2023/09/30 03:19:23;;;;;;;4.20;3.90;;;17.10;99.90;;;;;;5017017;28;20499;-90
2023/09/30 03:21:49;;;;;;;2.92;2.53;;;17.10;99.90;;;;;;5017702;28;20015;-89
2023/09/30 03:24:16;;;;;;;4.40;4.00;;;17.10;99.90;;;;;;5017929;28;20076;-90
2023/09/30 03:26:42;;;;;;;4.45;3.17;;;17.00;99.90;;;;;;5024571;28;20033;-90
2023/09/30 03:29:11;;;;;;;3.55;3.25;;;17.00;99.90;;;;;;5017867;28;20088;-90
2023/09/30 03:31:36;;;;;;;4.18;3.50;;;16.90;99.90;;;;;;5018038;28;20049;-90
2023/09/30 03:34:03;;;;;;;4.38;3.20;;;17.00;99.90;;;;;;5016896;28;20069;-89
2023/09/30 03:36:30;;;;;;;4.80;3.28;;;17.00;99.90;;;;;;5023302;28;20484;-91
2023/09/30 03:38:56;;;;;;;3.20;2.83;;;16.90;99.90;;;;;;5037184;28;20036;-90
2023/09/30 03:41:22;;;;;;;4.15;3.83;;;16.90;99.90;;;;;;5021211;28;20042;-90
2023/09/30 03:43:49;;;;;;;3.85;2.53;;;16.90;99.90;;;;;;5018553;28;20400;-92
2023/09/30 03:46:15;;;;;;;3.45;3.15;;;16.80;99.90;;;;;;5017166;28;20503;-89
2023/09/30 03:48:42;;;;;;;4.00;3.70;;;16.80;99.90;;;;;;5014075;28;20034;-90
2023/09/30 03:51:15;;;;;;;4.50;4.15;;;16.80;99.90;;;;;;5000815;28;20026;-89
2023/09/30 03:53:45;;;;;;;3.30;3.05;;;16.70;99.90;;;;;;5009290;28;20098;-90
2023/09/30 03:56:11;;;;;;;3.97;3.15;;;16.60;99.90;;;;;;5008521;28;20049;-89
2023/09/30 03:58:41;;;;;;;5.15;3.90;;;16.50;99.90;;;;;;5030261;28;20543;-90
2023/09/30 04:01:07;;;;;;;4.28;3.60;;;16.50;99.90;;;;;;5022282;28;20063;-90
2023/09/30 04:03:34;;;;;;;3.88;3.58;;;16.60;99.90;;;;;;5015855;28;20030;-90
2023/09/30 04:06:02;;;;;;;4.03;3.13;;;16.60;99.90;;;;;;5014633;28;20025;-90
2023/09/30 04:08:29;;;;;;;4.05;3.15;;;16.60;99.90;;;;;;5015226;28;20754;-91
2023/09/30 04:10:54;;;;;;;4.40;4.10;;;16.60;99.90;;;;;;5016633;28;20088;-91
2023/09/30 04:13:21;;;;;;;4.57;4.18;;;16.70;99.90;;;;;;5037786;28;20503;-89
2023/09/30 04:15:49;;;;;;;3.72;2.88;;;16.70;99.90;;;;;;5037328;28;20555;-90
2023/09/30 04:18:15;;;;;;;4.28;3.65;;;16.70;99.90;;;;;;5036407;28;20022;-89
2023/09/30 04:20:40;;;;;;;3.08;2.63;;;16.70;99.90;;;;;;5014411;28;20067;-91
2023/09/30 04:23:09;;;;;;;4.00;3.70;;;16.80;99.90;;;;;;5024773;28;20018;-90
2023/09/30 04:25:35;;;;;;;4.88;3.30;;;16.70;99.90;;;;;;5001891;28;20080;-92
2023/09/30 04:28:03;;;;;;;3.85;3.33;;;16.70;99.90;;;;;;5014530;28;20026;-90
2023/09/30 04:30:29;;;;;;;3.95;2.53;;;16.50;99.90;;;;;;4998698;28;20041;-90
2023/09/30 04:32:56;;;;;;;6.45;5.05;;;16.50;99.90;;;;;;5019234;28;20034;-91
2023/09/30 04:35:22;;;;;;;3.35;3.05;;;16.50;99.90;;;;;;5035379;28;20021;-90
2023/09/30 04:37:48;;;;;;;3.90;3.13;;;16.50;99.90;;;;;;5034729;28;20553;-90
2023/09/30 04:40:19;;;;;;;3.25;2.78;;;16.50;99.90;;;;;;5030742;28;20436;-90
2023/09/30 04:42:46;;;;;;;4.15;3.85;;;16.50;99.90;;;;;;5016590;28;20022;-91
2023/09/30 04:45:13;;;;;;;4.75;3.75;;;16.50;99.90;;;;;;5035668;28;20022;-90
2023/09/30 04:47:39;;;;;;;3.53;2.45;;;16.50;99.90;;;;;;5036747;28;20316;-90
2023/09/30 04:50:08;;;;;;;4.03;3.72;;;16.50;99.90;;;;;;5037158;28;20455;-90
2023/09/30 04:52:38;;;;;;;3.17;2.88;;;16.50;99.90;;;;;;5021150;28;20030;-90
2023/09/30 04:55:05;;;;;;;4.05;3.03;;;16.50;99.90;;;;;;4997375;28;20025;-91
2023/09/30 04:57:31;;;;;;;4.03;2.00;;;16.50;99.90;;;;;;5014390;28;20388;-90
2023/09/30 04:59:58;;;;;;;4.72;4.32;;;16.50;99.90;;;;;;5025057;28;20529;-92
2023/09/30 05:02:25;;;;;;;4.43;4.10;;;16.40;99.90;;;;;;5037824;28;20024;-91
2023/09/30 05:04:52;;;;;;;3.20;2.92;;;16.50;99.90;;;;;;5038628;28;20056;-90
2023/09/30 05:07:18;;;;;;;3.08;2.80;;;16.50;99.90;;;;;;5037948;28;20451;-91
2023/09/30 05:09:44;;;;;;;4.72;3.97;;;16.40;99.90;;;;;;5022674;28;20026;-90
2023/09/30 05:12:11;;;;;;;3.33;2.83;;;16.40;99.90;;;;;;5021107;28;20145;-91
2023/09/30 05:14:38;;;;;;;5.43;4.93;;;16.30;99.90;;;;;;5020265;28;20026;-90
2023/09/30 05:17:04;;;;;;;;;;;16.20;99.90;;;;;;5003053;28;20034;-90
2023/09/30 05:19:33;;;;;;;7.03;4.85;;;16.20;99.90;;;;;;5020322;28;19906;-90
2023/09/30 05:22:00;;;;;;;3.60;3.08;;;16.20;99.90;;;;;;5035536;28;20041;-91
2023/09/30 05:24:28;;;;;;;5.22;3.45;;;16.20;99.90;;;;;;5025018;28;20022;-90
2023/09/30 05:26:53;;;;;;;4.20;3.03;;;16.10;99.90;;;;;;5020543;28;20491;-90
2023/09/30 05:29:20;;;;;;;5.35;4.85;;;16.10;99.90;;;;;;5018984;28;20026;-91
2023/09/30 05:31:46;;;;;;;4.20;3.00;;;16.10;99.90;;;;;;5019548;28;20040;-91
2023/09/30 05:34:11;;;;;;;4.65;4.25;;;16.00;99.90;;;;;;5005188;28;20029;-91
2023/09/30 05:36:37;;;;;;;6.95;4.20;;;16.00;99.90;;;;;;5040221;28;20518;-91
2023/09/30 05:39:04;;;;;;;6.60;4.90;;;16.00;99.90;;;;;;5039361;28;20068;-90
2023/09/30 05:41:30;;;;;;;7.28;3.45;;;16.00;99.90;;;;;;5019125;28;20100;-90
2023/09/30 05:43:56;;;;;;;4.65;4.10;;;15.90;99.90;;;;;;5012479;28;20034;-89
2023/09/30 05:46:22;;;;;;;5.28;3.78;;;15.90;99.90;;;;;;5020602;28;20030;-93
2023/09/30 05:48:48;;;;;;;4.75;4.15;;;15.80;99.90;;;;;;5036060;28;20033;-90
2023/09/30 05:51:15;;;;;;;4.68;4.10;;;15.80;99.90;;;;;;5037861;28;20087;-89
2023/09/30 05:53:41;;;;;;;4.57;4.18;;;15.80;99.90;;;;;;5037224;28;20725;-90
2023/09/30 05:56:08;;;;;;;4.10;3.70;;;15.70;99.90;;;;;;5002119;28;20034;-91
2023/09/30 05:58:33;;;;;;;5.68;4.40;;;15.70;99.90;;;;;;5037772;28;20026;-89
2023/09/30 06:01:02;;;;;;;3.72;2.45;;;15.60;99.90;;;;;;5037588;28;20438;-90
2023/09/30 06:03:29;;;;;;;5.03;3.60;;;15.60;99.90;;;;;;5038006;28;20049;-90
2023/09/30 06:05:55;;;;;;;5.78;4.18;;;15.50;99.90;;;;;;5038285;28;20025;-90
2023/09/30 06:08:21;;;;;;;11.80;10.80;;;15.50;99.90;;;;;;5037658;28;20026;-90
2023/09/30 06:10:47;;;;;;;6.07;4.82;;;15.50;99.90;;;;;;5022887;28;20041;-89
2023/09/30 06:13:15;;;;;;;6.50;4.47;;;15.60;99.90;;;;;;5030614;28;20033;-91
2023/09/30 06:15:41;;;;;;;6.55;5.05;;;15.60;99.90;;;;;;5024820;28;20018;-92
2023/09/30 06:18:09;;;;;;;6.93;4.30;;;15.60;99.90;;;;;;5017238;28;20037;-91
2023/09/30 06:20:35;;;;;;;6.05;5.35;;;15.60;99.90;;;;;;5031239;28;20014;-91
2023/09/30 06:23:01;;;;;;;5.45;4.45;;;15.50;99.90;;;;;;5039469;28;20048;-89
2023/09/30 06:25:27;;;;;;;11.35;6.32;;;15.60;99.90;;;;;;5026055;28;20029;-92
2023/09/30 06:27:57;;;;;;;7.80;6.35;;;15.60;99.90;;;;;;5036659;28;20037;-90
2023/09/30 06:30:29;;;;;;;6.97;4.35;;;15.70;99.90;;;;;;5028417;28;20029;-91
2023/09/30 06:32:59;;;;;;;11.82;4.75;;;15.80;99.90;;;;;;5009946;28;20487;-92
2023/09/30 06:35:39;;;;;;;7.45;5.35;;;15.90;99.90;;;;;;5001414;28;20064;-89
2023/09/30 06:38:11;;;;;;;7.93;5.55;;;16.10;99.90;;;;;;5014479;28;20061;-94
2023/09/30 06:40:47;;;;;;;6.65;5.15;;;16.20;99.90;;;;;;4999866;28;20038;-93
2023/09/30 06:43:16;;;;;;;9.23;7.13;;;16.30;99.90;;;;;;4995999;28;20034;-94
2023/09/30 06:45:44;;;;;;;8.90;6.50;;;16.40;99.90;;;;;;4999175;28;20026;-94
2023/09/30 06:48:15;;;;;;;8.02;6.05;;;16.40;98.90;;;;;;5015604;28;20025;-95
2023/09/30 06:50:48;;;;;;;7.60;5.55;;;16.60;98.40;;;;;;5010395;28;20056;-95
2023/09/30 06:53:21;;;;;;;8.50;5.93;;;16.60;97.20;;;;;;5017113;28;20121;-93
2023/09/30 06:55:48;;;;;;;7.15;6.45;;;16.70;95.90;;;;;;5036754;28;20068;-93
2023/09/30 06:58:20;;;;;;;7.28;5.80;;;16.70;96.80;;;;;;5038026;28;20490;-91
2023/09/30 07:00:49;;;;;;;5.45;4.95;;;16.60;96.80;;;;;;5028743;28;20014;-91
2023/09/30 07:03:21;;;;;;;9.25;5.28;;;16.60;99.30;;;;;;5015546;28;20033;-93
2023/09/30 07:05:50;;;;;;;6.82;6.20;;;16.60;99.90;;;;;;5017865;28;20112;-91
2023/09/30 07:08:21;;;;;;;6.78;5.45;;;16.60;99.90;;;;;;5000033;28;20030;-92
2023/09/30 07:10:49;;;;;;;7.22;6.00;;;16.50;99.90;;;;;;4983525;28;20030;-92
2023/09/30 07:13:17;;;;;;;7.03;5.47;;;16.60;99.90;;;;;;5005419;28;20033;-91
2023/09/30 07:15:43;;;;;;;7.95;5.22;;;16.60;98.80;;;;;;5017595;28;20602;-93
2023/09/30 07:18:09;;;;;;;6.70;5.63;;;16.70;98.20;;;;;;5039519;28;20050;-92
2023/09/30 07:20:35;;;;;;;8.48;5.70;;;16.80;97.00;;;;;;5029718;28;20022;-91
2023/09/30 07:23:03;;;;;;;8.43;6.22;;;16.80;95.60;;;;;;4992667;28;20023;-91
2023/09/30 07:25:31;;;;;;;8.73;6.80;;;16.90;94.20;;;;;;5012646;28;20014;-92
2023/09/30 07:27:58;;;;;;;7.47;4.78;;;16.90;93.60;;;;;;5026061;28;20049;-94
2023/09/30 07:30:24;;;;;;;7.57;5.60;;;16.90;92.90;;;;;;5024419;28;20026;-90
2023/09/30 07:32:53;;;;;;;9.05;5.90;;;17.00;93.20;;;;;;5025296;28;20029;-92
2023/09/30 07:35:18;;;;;;;6.45;5.63;;;17.10;93.00;;;;;;5005765;28;20036;-92
2023/09/30 07:37:44;;;;;;;9.07;6.72;;;17.10;92.40;;;;;;5015891;28;20100;-92
2023/09/30 07:40:11;;;;;;;14.35;10.23;;;17.20;90.90;;;;;;5024196;28;20670;-92
2023/09/30 07:42:40;;;;;;;8.07;6.45;;;17.20;90.60;;;;;;5021844;28;20032;-92
2023/09/30 07:45:06;;;;;;;6.85;6.03;;;17.30;90.70;;;;;;5002447;28;20026;-92
2023/09/30 07:47:33;;;;;;;7.00;5.40;;;17.30;90.50;;;;;;5018205;28;20018;-94
2023/09/30 07:50:02;;;;;;;9.35;6.95;;;17.40;90.30;;;;;;5035281;28;20021;-92
2023/09/30 07:52:27;;;;;;;10.68;6.43;;;17.60;89.70;;;;;;5016953;28;20055;-91
2023/09/30 07:54:53;;;;;;;10.05;6.28;;;17.60;89.00;;;;;;5024416;28;20437;-92
2023/09/30 07:57:20;;;;;;;9.93;7.53;;;17.70;89.00;;;;;;5020994;28;20056;-92
2023/09/30 07:59:46;;;;;;;9.45;6.97;;;17.60;88.40;;;;;;5002635;28;20022;-91
2023/09/30 08:02:14;;;;;;;9.68;6.68;;;17.70;88.30;;;;;;4995386;28;20401;-91
2023/09/30 08:04:40;;;;;;;7.93;6.88;;;17.70;88.50;;;;;;5004328;28;20017;-93
2023/09/30 08:07:06;;;;;;;11.73;9.00;;;17.80;88.00;;;;;;5008060;28;20025;-93
2023/09/30 08:09:31;;;;;;;11.70;7.65;;;17.90;88.00;;;;;;5008536;28;20029;-92
2023/09/30 08:11:58;;;;;;;12.82;9.98;;;18.00;87.20;;;;;;5017565;28;20086;-93
2023/09/30 08:14:24;;;;;;;13.05;7.88;;;18.00;86.00;;;;;;5017110;28;20057;-92
2023/09/30 08:16:49;;;;;;;8.57;7.72;;;18.10;86.10;;;;;;5016537;28;20026;-91
2023/09/30 08:19:15;;;;;;;10.73;7.78;;;18.10;85.60;;;;;;5002303;28;20137;-92
2023/09/30 08:21:41;;;;;;;9.55;6.63;;;18.20;85.60;;;;;;5035869;28;20068;-93
2023/09/30 08:24:09;;;;;;;12.15;7.70;;;18.10;85.60;;;;;;5035350;28;20026;-93
2023/09/30 08:26:45;;;;;;;9.25;8.13;;;18.20;85.60;;;;;;5014527;28;20061;-94
2023/09/30 08:29:16;;;;;;;12.25;8.57;;;18.30;84.80;;;;;;5005350;28;20025;-92
2023/09/30 08:31:44;;;;;;;10.95;6.85;;;18.40;85.20;;;;;;5017384;28;20423;-92
2023/09/30 08:34:14;;;;;;;10.00;8.05;;;18.40;84.00;;;;;;5019304;28;20026;-94
2023/09/30 08:36:42;;;;;;;11.35;7.20;;;18.50;84.40;;;;;;5004204;28;20037;-94
2023/09/30 08:39:10;;;;;;;9.68;7.53;;;18.60;83.90;;;;;;5005632;28;20156;-92
2023/09/30 08:41:36;;;;;;;10.93;7.53;;;18.60;82.60;;;;;;5020052;28;20057;-91
2023/09/30 08:44:03;;;;;;;9.98;7.60;;;18.60;82.10;;;;;;5001515;28;20050;-92
2023/09/30 08:46:33;;;;;;;9.88;7.60;;;18.70;83.00;;;;;;5019347;28;20080;-92
2023/09/30 08:49:04;;;;;;;10.25;7.82;;;18.70;81.40;;;;;;5035158;28;20044;-92
2023/09/30 08:51:30;;;;;;;9.65;7.18;;;18.80;81.10;;;;;;5004138;28;20041;-93
2023/09/30 08:53:57;;;;;;;8.68;6.43;;;18.80;81.40;;;;;;5019791;28;20053;-92
2023/09/30 08:59:15;;;;;;;10.52;6.15;;;18.80;82.00;;;;;;5047759;28;20060;-92
2023/09/30 09:01:44;;;;;;;8.77;6.10;;;19.00;80.50;;;;;;5038017;28;20108;-92
2023/09/30 09:04:18;;;;;;;9.18;6.95;;;19.20;80.50;;;;;;5003571;28;20026;-93
2023/09/30 09:06:47;;;;;;;9.70;5.75;;;19.30;79.90;;;;;;5004142;28;20029;-94
2023/09/30 09:09:22;;;;;;;8.77;7.03;;;19.40;79.20;;;;;;4998624;28;20030;-93
2023/09/30 09:11:48;;;;;;;11.60;6.38;;;19.50;78.50;;;;;;5007190;28;20081;-91
2023/09/30 09:14:35;;;;;;;11.07;6.68;;;19.60;78.00;;;;;;5002835;28;20022;-93
2023/09/30 09:21:27;;;;;;;6.85;6.18;;;19.70;77.70;;;;;;4941412;29;20023;-93
2023/09/30 09:24:01;;;;;;;9.70;6.53;;;19.70;76.30;;;;;;4924018;29;20057;-93
2023/09/30 09:27:22;;;;;;;10.50;5.43;;;19.90;76.40;;;;;;4932903;29;20031;-94
2023/09/30 09:36:21;;;;;;;8.77;5.78;;;20.20;74.20;;;;;;5026693;23;20419;-90
2023/09/30 09:38:49;;;;;;;9.10;6.25;;;20.50;73.70;;;;;;5019260;28;20070;-90
2023/09/30 09:41:16;;;;;;;7.07;5.35;;;20.50;73.20;;;;;;5015218;28;20041;-90
2023/09/30 09:43:43;;;;;;;7.65;6.30;;;20.60;73.30;;;;;;4999313;28;20547;-92
2023/09/30 09:46:09;;;;;;;7.90;4.07;;;20.70;71.70;;;;;;4984703;28;20448;-89
2023/09/30 09:48:36;;;;;;;7.43;6.68;;;20.70;72.20;;;;;;5010094;28;20026;-89
2023/09/30 09:51:03;;;;;;;5.82;3.35;;;20.90;71.20;;;;;;5017597;28;20456;-89
2023/09/30 09:53:31;;;;;;;6.93;5.97;;;20.90;70.60;;;;;;5003508;28;20033;-89
2023/09/30 09:55:59;;;;;;;6.47;5.15;;;21.00;69.70;;;;;;4998468;28;20034;-88
2023/09/30 09:58:26;;;;;;;7.25;5.78;;;21.00;69.00;;;;;;4998928;28;20094;-89
2023/09/30 10:00:52;;;;;;;;;;;21.20;68.70;;;;;;5017874;28;20105;-91
2023/09/30 10:03:18;;;;;;;6.55;4.88;;;21.30;68.90;;;;;;4998688;28;19959;-90
2023/09/30 10:05:45;;;;;;;7.15;5.72;;;21.60;67.00;;;;;;5019478;28;20022;-90
2023/09/30 10:08:17;;;;;;;6.38;5.57;;;21.80;67.10;;;;;;5018399;28;20026;-89
2023/09/30 10:10:45;;;;;;;7.55;6.05;;;22.00;65.20;;;;;;5019493;28;20060;-90
2023/09/30 10:13:49;;;;;;;6.30;5.10;;;22.10;64.50;;;;;;5012861;28;20097;-91
2023/09/30 10:16:36;;;;;;;8.43;5.20;;;22.30;64.40;;;;;;5002171;28;20083;-91
2023/09/30 10:19:08;;;;;;;6.80;5.35;;;22.10;65.00;;;;;;5011004;28;20504;-90
2023/09/30 10:21:33;;;;;;;8.32;4.65;;;22.10;64.80;;;;;;5004645;28;20034;-89
2023/09/30 10:24:24;;;;;;;8.32;5.82;;;22.10;65.10;;;;;;4997714;28;20026;-91
2023/09/30 10:27:22;;;;;;;5.07;4.50;;;22.20;65.10;;;;;;4994437;28;20076;-91
2023/09/30 10:30:13;;;;;;;7.47;5.10;;;22.20;63.80;;;;;;4997935;28;20046;-91
2023/09/30 10:32:51;;;;;;;6.40;5.30;;;22.60;63.50;;;;;;5009470;28;20037;-89
2023/09/30 10:35:17;;;;;;;7.20;4.18;;;22.60;63.60;;;;;;5011517;28;20041;-90
2023/09/30 10:37:44;;;;;;;9.55;5.15;;;22.70;63.40;;;;;;5001573;28;20026;-89
2023/09/30 10:40:25;;;;;;;5.93;4.85;;;22.70;62.70;;;;;;5008578;28;20053;-90
2023/09/30 10:42:52;;;;;;;6.75;5.18;;;22.50;63.00;;;;;;4996887;28;20097;-90
2023/09/30 10:45:37;;;;;;;6.55;5.13;;;22.70;62.00;;;;;;5013442;28;20037;-93
2023/09/30 10:48:25;;;;;;;7.22;4.60;;;23.00;61.30;;;;;;5013218;28;20013;-90
2023/09/30 10:50:56;;;;;;;6.60;4.20;;;23.00;61.60;;;;;;4989011;28;20279;-89
2023/09/30 10:53:22;;;;;;;6.15;4.93;;;23.40;60.70;;;;;;5011805;28;20030;-89
2023/09/30 10:55:57;;;;;;;5.95;4.93;;;23.20;60.10;;;;;;5018097;28;20026;-89
2023/09/30 10:58:43;;;;;;;7.95;4.50;;;23.20;59.50;;;;;;5000143;28;20357;-90
2023/09/30 11:01:09;;;;;;;6.55;4.18;;;23.20;59.10;;;;;;4998666;28;20033;-90
2023/09/30 11:03:35;;;;;;;6.50;4.70;;;23.30;59.80;;;;;;5013115;28;20053;-88
2023/09/30 11:06:00;;;;;;;5.00;4.50;;;23.80;57.80;;;;;;5002530;28;20030;-89
2023/09/30 11:08:32;;;;;;;5.20;4.72;;;24.10;57.30;;;;;;5003608;28;20046;-91
2023/09/30 11:11:00;;;;;;;6.53;4.82;;;24.50;55.20;;;;;;5016498;28;20041;-90
2023/09/30 11:13:38;;;;;;;7.82;5.13;;;24.60;54.00;;;;;;5020271;28;20042;-91
2023/09/30 11:16:04;;;;;;;8.05;5.68;;;24.80;53.70;;;;;;5003243;28;20109;-90
2023/09/30 11:18:31;;;;;;;6.28;4.65;;;24.80;53.10;;;;;;5008882;28;20070;-90
2023/09/30 11:21:04;;;;;;;4.90;4.45;;;24.80;53.60;;;;;;4980510;28;20049;-91
2023/09/30 11:23:30;;;;;;;6.82;5.70;;;24.70;53.90;;;;;;4992427;28;20121;-90
2023/09/30 11:25:56;;;;;;;11.43;4.88;;;24.80;52.30;;;;;;5013983;28;20030;-89
2023/09/30 11:28:25;;;;;;;6.15;4.25;;;24.60;52.50;;;;;;4987021;28;20031;-89
2023/09/30 11:30:59;;;;;;;6.38;4.47;;;24.50;54.70;;;;;;5015351;28;20022;-90
2023/09/30 11:33:25;;;;;;;6.28;4.32;;;24.20;55.00;;;;;;5016305;28;20052;-90
2023/09/30 11:36:06;;;;;;;6.07;4.28;;;24.00;55.10;;;;;;5011387;28;20057;-89
2023/09/30 11:38:35;;;;;;;6.82;4.85;;;23.90;54.70;;;;;;5017158;28;20045;-90
2023/09/30 11:41:06;;;;;;;5.82;3.88;;;23.90;53.50;;;;;;5016800;28;20091;-91
2023/09/30 11:43:33;;;;;;;5.70;4.40;;;23.60;52.80;;;;;;4999935;28;20023;-91
2023/09/30 11:46:08;;;;;;;5.05;4.40;;;24.10;52.30;;;;;;4977634;28;20527;-91
2023/09/30 11:48:38;;;;;;;5.57;4.07;;;24.60;50.20;;;;;;5013717;28;20109;-91
2023/09/30 11:51:04;;;;;;;7.25;4.57;;;24.80;50.60;;;;;;5003879;28;20049;-89
2023/09/30 11:53:31;;;;;;;5.72;3.83;;;24.90;51.40;;;;;;4985673;28;20392;-90
2023/09/30 11:56:02;;;;;;;6.43;4.35;;;25.20;50.40;;;;;;5006470;28;20084;-90
2023/09/30 11:58:28;;;;;;;7.75;5.18;;;25.20;50.60;;;;;;5016046;28;20526;-90
2023/09/30 12:00:57;;;;;;;5.75;3.20;;;25.30;51.00;;;;;;5010696;28;20026;-91
2023/09/30 12:03:23;;;;;;;7.95;4.18;;;25.50;49.50;;;;;;5010841;28;20068;-90
2023/09/30 12:05:49;;;;;;;7.18;2.78;;;25.60;48.00;;;;;;5016654;28;20337;-90
2023/09/30 12:08:14;;;;;;;5.93;3.97;;;25.50;48.10;;;;;;5009779;28;20031;-90
2023/09/30 12:10:40;;;;;;;5.70;3.65;;;25.40;46.60;;;;;;5003814;28;20022;-90
2023/09/30 12:13:06;;;;;;;4.65;3.10;;;25.70;46.90;;;;;;4994332;28;20034;-89
2023/09/30 12:15:31;;;;;;;6.28;3.17;;;25.90;43.40;;;;;;4996927;28;20477;-89
2023/09/30 12:17:57;;;;;;;8.65;3.15;;;25.90;44.00;;;;;;4981073;28;20026;-90
2023/09/30 12:20:23;;;;;;;7.50;4.15;;;25.90;43.60;;;;;;4993306;28;20105;-91
2023/09/30 12:22:49;;;;;;;5.32;3.22;;;26.20;43.30;;;;;;5002078;28;20572;-91
2023/09/30 12:25:18;;;;;;;6.20;3.15;;;26.20;42.90;;;;;;4987546;28;20081;-89
2023/09/30 12:27:46;;;;;;;5.88;3.58;;;26.10;41.30;;;;;;5016025;28;20260;-89
2023/09/30 12:30:13;;;;;;;7.97;3.38;;;25.80;38.50;;;;;;5017036;28;20414;-91
2023/09/30 12:32:39;;;;;;;5.65;3.08;;;26.20;38.50;;;;;;5014944;28;20476;-90
2023/09/30 12:35:05;;;;;;;6.93;3.80;;;26.20;37.80;;;;;;4998116;28;20110;-90
2023/09/30 12:37:32;;;;;;;6.93;3.67;;;25.90;39.10;;;;;;5012964;28;20065;-91
2023/09/30 12:39:58;;;;;;;6.05;3.72;;;26.60;37.80;;;;;;5018342;28;20022;-91
2023/09/30 12:42:24;;;;;;;6.97;3.55;;;27.00;37.60;;;;;;5015339;28;20112;-92
2023/09/30 12:44:50;;;;;;;7.75;2.67;;;27.40;35.40;;;;;;4984749;28;20026;-92
2023/09/30 12:47:16;;;;;;;6.20;4.38;;;27.90;33.50;;;;;;5004512;28;20023;-92
2023/09/30 12:49:41;;;;;;;6.10;3.30;;;27.90;31.60;;;;;;5013649;28;20025;-91
2023/09/30 12:52:07;;;;;;;6.22;3.45;;;27.90;31.80;;;;;;5017636;28;20033;-90
2023/09/30 12:54:34;;;;;;;8.40;3.40;;;27.90;33.30;;;;;;5002028;28;20022;-89
2023/09/30 12:56:59;;;;;;;6.40;3.53;;;28.00;33.90;;;;;;5007621;28;20095;-88
2023/09/30 12:59:25;;;;;;;6.80;3.75;;;27.80;32.20;;;;;;5003515;28;20022;-89
2023/09/30 13:01:51;;;;;;;6.22;3.47;;;28.00;32.80;;;;;;4997678;28;20356;-91
2023/09/30 13:04:18;;;;;;;6.40;2.80;;;28.50;31.40;;;;;;5003637;28;20423;-90